Time;durP1;ratioP1;P1;durP2;ratioP2;P2;SDS_P1;SDS_P2;PMS_P1;PMS_P2;Temp;Humidity;BMP_temperature;BMP_pressure;BME280_temperature;BME280_humidity;BME280_pressure;Samples;Min_cycle;Max_cycle;Signal;HPM_P1;HPM_P2
2022/05/16 00:02:04;;;;;;;14.48;4.40;;;;;;;19.63;43.56;101250.75;5016028;28;20064;-64
2022/05/16 00:04:30;;;;;;;11.93;4.18;;;;;;;19.55;44.03;101244.59;4998486;28;20018;-65
2022/05/16 00:06:55;;;;;;;10.30;3.97;;;;;;;19.55;43.82;101241.94;5015904;28;20097;-65
2022/05/16 00:09:21;;;;;;;14.52;4.10;;;;;;;19.49;43.92;101241.16;5016004;28;20022;-65
2022/05/16 00:11:49;;;;;;;11.52;3.72;;;;;;;19.42;44.68;101242.16;5016154;28;20028;-65
2022/05/16 00:14:15;;;;;;;13.63;4.22;;;;;;;19.42;44.53;101239.47;5015384;28;20474;-65
2022/05/16 00:16:40;;;;;;;12.25;4.20;;;;;;;19.34;44.71;101244.09;5015404;28;20056;-65
2022/05/16 00:19:06;;;;;;;10.73;4.20;;;;;;;19.37;45.39;101245.84;5015951;28;20034;-65
2022/05/16 00:21:32;;;;;;;11.20;3.90;;;;;;;19.41;44.33;101234.16;5015933;28;20034;-66
2022/05/16 00:23:58;;;;;;;11.65;4.45;;;;;;;19.34;44.71;101230.72;5015885;28;20030;-66
2022/05/16 00:26:23;;;;;;;11.88;4.30;;;;;;;19.36;44.45;101228.03;5015661;28;20080;-66
2022/05/16 00:28:49;;;;;;;14.45;4.28;;;;;;;19.30;45.17;101230.78;5015607;28;20034;-66
2022/05/16 00:31:15;;;;;;;10.57;3.95;;;;;;;19.31;44.93;101222.72;5015580;28;20032;-66
2022/05/16 00:33:41;;;;;;;12.95;4.20;;;;;;;19.23;45.10;101222.00;5015555;28;20109;-65
2022/05/16 00:36:09;;;;;;;11.15;4.70;;;;;;;19.22;44.97;101212.19;5015674;28;20113;-65
2022/05/16 00:38:35;;;;;;;13.32;4.60;;;;;;;19.19;45.62;101218.50;4998013;28;20387;-65
2022/05/16 00:41:02;;;;;;;11.95;4.13;;;;;;;19.15;45.46;101214.13;5015673;28;20026;-66
2022/05/16 00:43:53;;;;;;;13.13;4.35;;;;;;;19.16;44.98;101209.63;5015533;28;21086;-65
2022/05/16 00:46:21;;;;;;;12.02;4.30;;;;;;;19.10;45.80;101220.44;4997737;28;20036;-66
2022/05/16 00:48:47;;;;;;;9.85;4.22;;;;;;;19.04;46.06;101213.41;5015377;28;20026;-66
2022/05/16 00:51:18;;;;;;;12.05;4.50;;;;;;;19.00;46.19;101219.72;4997584;28;20458;-66
2022/05/16 00:53:44;;;;;;;12.75;4.38;;;;;;;19.03;46.11;101219.69;5015125;28;20368;-65
2022/05/16 00:56:11;;;;;;;10.55;4.30;;;;;;;19.01;45.93;101218.81;5015194;28;20033;-65
2022/05/16 00:58:39;;;;;;;9.68;4.35;;;;;;;18.97;46.29;101220.69;5015185;28;20026;-65
2022/05/16 01:04:47;;;;;;;10.93;4.53;;;;;;;18.96;46.30;101213.53;5015118;28;20172;-65
2022/05/16 01:06:38;;;;;;;12.70;4.43;;;;;;;19.05;46.13;101212.50;5015043;28;20045;-66
2022/05/16 01:09:03;;;;;;;14.10;4.20;;;;;;;18.93;46.43;101207.38;5014994;28;20033;-65
2022/05/16 01:11:29;;;;;;;17.85;4.50;;;;;;;18.96;46.51;101201.94;5014903;28;20026;-65
2022/05/16 01:13:57;;;;;;;13.57;4.28;;;;;;;18.98;46.25;101206.38;5015003;28;20079;-65
2022/05/16 01:16:23;;;;;;;12.52;4.40;;;;;;;19.01;46.23;101200.97;4997126;28;20046;-65
2022/05/16 01:18:48;;;;;;;12.07;4.45;;;;;;;18.98;46.56;101198.34;5014742;28;20036;-66
2022/05/16 01:21:30;;;;;;;11.77;4.45;;;;;;;18.96;46.37;101201.94;5014709;28;20026;-65
2022/05/16 01:24:11;;;;;;;15.75;4.53;;;;;;;18.89;46.60;101205.69;5014988;28;20030;-66
2022/05/16 01:26:37;;;;;;;9.27;4.22;;;;;;;18.86;46.69;101208.41;5014675;28;20466;-65
2022/05/16 01:29:04;;;;;;;9.57;4.28;;;;;;;18.82;46.90;101212.91;5014669;28;20029;-65
2022/05/16 01:31:30;;;;;;;11.65;4.55;;;;;;;18.79;47.15;101212.97;5014486;28;20383;-66
2022/05/16 01:33:55;;;;;;;15.02;4.32;;;;;;;18.75;47.31;101214.81;5014581;28;20032;-65
2022/05/16 01:36:21;;;;;;;13.48;4.35;;;;;;;18.71;47.47;101223.81;5014545;28;20034;-65
2022/05/16 01:38:47;;;;;;;9.52;3.95;;;;;;;18.77;47.32;101209.44;5014361;28;20026;-65
2022/05/16 01:41:16;;;;;;;11.70;4.18;;;;;;;18.79;47.14;101207.59;5014463;28;20029;-65
2022/05/16 01:43:48;;;;;;;14.32;4.13;;;;;;;18.75;47.45;101198.75;4997145;28;20517;-65
2022/05/16 01:46:20;;;;;;;15.15;4.47;;;;;;;18.76;47.26;101199.66;5014159;28;20026;-65
2022/05/16 01:48:46;;;;;;;;;;;;;;;18.85;46.06;101198.59;5014821;28;20069;-65
2022/05/16 01:51:12;;;;;;;15.93;4.40;;;;;;;18.75;47.32;101197.84;5014163;28;19952;-65
2022/05/16 01:53:40;;;;;;;10.55;4.43;;;;;;;18.69;47.62;101190.81;5014036;28;20026;-65
2022/05/16 01:56:06;;;;;;;12.10;4.43;;;;;;;18.70;47.82;101195.25;5014343;28;20036;-65
2022/05/16 01:58:32;;;;;;;12.90;4.50;;;;;;;18.59;48.01;101191.88;5014144;28;20030;-65
2022/05/16 02:00:57;;;;;;;12.00;4.30;;;;;;;18.61;48.07;101186.47;5013824;28;20084;-65
2022/05/16 02:03:23;;;;;;;11.43;4.65;;;;;;;18.57;48.27;101182.09;5013662;28;20029;-65
2022/05/16 02:05:49;;;;;;;9.75;4.30;;;;;;;18.44;48.53;101181.41;5013998;28;20053;-65
2022/05/16 02:08:15;;;;;;;11.82;4.50;;;;;;;18.47;48.82;101182.25;5013922;28;20026;-66
2022/05/16 02:10:42;;;;;;;10.90;4.45;;;;;;;18.48;48.57;101184.00;5013892;28;20034;-66
2022/05/16 02:13:08;;;;;;;14.10;4.78;;;;;;;18.43;48.92;101179.66;5014070;28;20030;-65
2022/05/16 02:15:35;;;;;;;11.93;4.80;;;;;;;18.41;48.92;101176.97;5013426;28;20050;-65
2022/05/16 02:18:00;;;;;;;13.82;4.97;;;;;;;18.40;49.09;101167.19;5013797;28;20022;-65
2022/05/16 02:20:27;;;;;;;10.27;4.75;;;;;;;18.42;48.96;101184.13;5013785;28;20029;-66
2022/05/16 02:25:41;;;;;;;20.55;5.00;;;;;;;18.41;49.29;101173.41;5013995;28;20092;-65
2022/05/16 02:28:12;;;;;;;13.55;4.93;;;;;;;18.42;49.05;101170.75;5013590;28;20030;-66
2022/05/16 02:30:38;;;;;;;16.55;5.22;;;;;;;18.37;49.33;101167.25;5013767;28;20030;-66
2022/05/16 02:33:04;;;;;;;11.68;4.82;;;;;;;18.34;49.59;101169.97;5013741;28;20029;-65
2022/05/16 02:35:32;;;;;;;11.35;4.90;;;;;;;18.30;49.87;101162.03;5013632;28;20030;-65
2022/05/16 02:37:58;;;;;;;11.50;4.65;;;;;;;18.34;49.67;101164.63;5013457;28;20470;-65
2022/05/16 02:40:28;;;;;;;10.10;4.40;;;;;;;18.31;49.49;101161.13;5013421;28;20058;-65
2022/05/16 02:42:54;;;;;;;8.98;4.60;;;;;;;18.33;49.62;101161.97;5013358;28;20034;-65
2022/05/16 02:45:36;;;;;;;11.77;4.38;;;;;;;18.34;49.16;101148.56;5013364;28;20053;-66
2022/05/16 02:48:02;;;;;;;11.98;4.43;;;;;;;18.25;49.84;101156.75;5013473;28;20466;-65
2022/05/16 02:50:27;;;;;;;12.57;4.85;;;;;;;18.23;50.22;101151.41;5013604;28;20033;-66
2022/05/16 02:52:53;;;;;;;9.13;4.43;;;;;;;18.22;50.19;101143.41;5013254;28;20033;-65
2022/05/16 02:55:19;;;;;;;11.00;4.82;;;;;;;18.19;50.26;101148.81;5013340;28;20029;-65
2022/05/16 02:57:45;;;;;;;10.32;5.03;;;;;;;18.17;50.56;101129.25;5013355;28;20022;-65
2022/05/16 03:00:37;;;;;;;9.95;4.47;;;;;;;18.16;49.79;101139.06;5013247;28;20458;-65
2022/05/16 03:03:02;;;;;;;15.20;4.95;;;;;;;18.14;50.46;101127.47;5013395;28;20022;-65
2022/05/16 03:05:27;;;;;;;11.15;4.35;;;;;;;18.12;50.79;101133.78;5013191;28;20022;-65
2022/05/16 03:07:53;;;;;;;9.23;4.32;;;;;;;18.10;50.73;101133.78;5013144;28;20022;-65
2022/05/16 03:10:18;;;;;;;10.77;4.63;;;;;;;18.09;50.75;101125.81;5013065;28;20021;-65
2022/05/16 03:12:45;;;;;;;11.20;4.57;;;;;;;18.07;50.81;101117.78;5013070;28;20061;-65
2022/05/16 03:15:13;;;;;;;9.73;4.63;;;;;;;17.97;50.97;101118.84;5016382;28;20430;-65
2022/05/16 03:17:39;;;;;;;10.30;4.60;;;;;;;17.99;51.13;101117.06;5017018;28;20139;-65
2022/05/16 03:20:10;;;;;;;10.68;4.95;;;;;;;17.90;51.36;101114.47;4999769;28;20053;-65
2022/05/16 03:22:35;;;;;;;13.18;4.25;;;;;;;17.98;51.28;101112.59;5016980;28;20482;-65
2022/05/16 03:25:02;;;;;;;10.63;4.32;;;;;;;18.02;51.02;101119.66;5016864;28;20077;-65
2022/05/16 03:27:28;;;;;;;12.82;4.40;;;;;;;17.93;51.29;101130.50;5016906;28;20058;-65
2022/05/16 03:29:55;;;;;;;7.97;4.50;;;;;;;17.94;51.20;101121.56;5016700;28;20163;-65
2022/05/16 03:32:24;;;;;;;13.32;4.95;;;;;;;17.95;51.31;101128.69;5016722;28;20455;-65
2022/05/16 03:34:50;;;;;;;10.77;4.70;;;;;;;17.97;51.24;101126.88;5016826;28;20022;-65
2022/05/16 03:37:17;;;;;;;10.43;4.55;;;;;;;17.99;51.09;101127.75;5016701;28;20133;-65
2022/05/16 03:42:31;;;;;;;9.10;4.45;;;;;;;17.93;51.39;101122.47;5016714;28;20041;-65
2022/05/16 03:44:56;;;;;;;9.70;4.40;;;;;;;17.92;51.57;101126.06;5016530;28;20030;-65
2022/05/16 03:47:21;;;;;;;8.45;4.10;;;;;;;17.94;51.55;101126.91;5016592;28;20030;-65
2022/05/16 03:49:47;;;;;;;13.15;4.50;;;;;;;17.98;51.69;101131.28;5016566;28;20026;-65
2022/05/16 03:52:13;;;;;;;10.07;4.70;;;;;;;17.99;51.53;101131.28;5016120;28;20092;-66
2022/05/16 03:54:40;;;;;;;12.70;4.68;;;;;;;17.97;51.58;101129.53;4998881;28;20022;-65
2022/05/16 03:57:06;;;;;;;14.13;4.80;;;;;;;17.96;52.02;101127.78;5015841;28;20042;-65
2022/05/16 03:59:32;;;;;;;11.85;4.70;;;;;;;17.98;51.58;101121.47;5016380;28;20076;-65
2022/05/16 04:01:58;;;;;;;9.05;4.50;;;;;;;17.95;51.61;101123.34;5016203;28;20025;-65
2022/05/16 04:04:27;;;;;;;10.75;4.45;;;;;;;17.81;52.50;101128.00;5016194;28;20054;-65
2022/05/16 04:06:53;;;;;;;8.23;4.18;;;;;;;17.79;51.96;101125.34;5015951;28;20108;-65
2022/05/16 04:09:18;;;;;;;8.52;4.40;;;;;;;17.72;52.49;101123.63;5016043;28;20033;-65
2022/05/16 04:11:44;;;;;;;10.23;4.80;;;;;;;17.73;52.36;101112.06;5016077;28;20021;-65
2022/05/16 04:14:10;;;;;;;11.57;5.00;;;;;;;17.75;52.34;101115.59;4998410;28;20053;-65
2022/05/16 04:16:37;;;;;;;10.02;4.80;;;;;;;17.68;52.78;101125.47;5015675;28;20053;-65
2022/05/16 04:19:06;;;;;;;11.32;5.00;;;;;;;17.64;53.07;101125.53;5015895;28;20034;-65
2022/05/16 04:21:33;;;;;;;12.63;4.78;;;;;;;17.69;52.88;101121.03;5015809;28;20471;-66
2022/05/16 04:23:58;;;;;;;16.52;5.10;;;;;;;17.79;52.77;101127.16;5015696;28;20052;-65
2022/05/16 04:26:24;;;;;;;9.40;4.43;;;;;;;17.84;52.15;101127.97;5015484;28;20026;-65
2022/05/16 04:28:49;;;;;;;11.35;4.70;;;;;;;17.86;52.22;101139.50;5015946;28;20517;-65
2022/05/16 04:31:15;;;;;;;11.40;4.88;;;;;;;17.92;52.30;101142.97;4998064;28;20026;-65
2022/05/16 04:33:40;;;;;;;14.07;5.15;;;;;;;17.96;52.18;101136.69;5015734;28;20030;-64
2022/05/16 04:36:05;;;;;;;11.50;4.90;;;;;;;18.01;52.30;101131.25;5015383;28;20601;-65
2022/05/16 04:38:31;;;;;;;12.27;5.05;;;;;;;17.99;52.59;101133.09;4997857;28;20030;-65
2022/05/16 04:43:41;;;;;;;13.85;4.95;;;;;;;17.91;53.32;101140.34;5015813;28;20167;-65
2022/05/16 04:46:08;;;;;;;12.20;5.18;;;;;;;17.89;53.56;101135.00;5015588;28;20475;-65
2022/05/16 04:48:34;;;;;;;12.45;5.07;;;;;;;17.96;53.16;101139.34;4997766;28;20030;-65
2022/05/16 04:50:59;;;;;;;13.07;4.85;;;;;;;18.06;53.18;101140.09;5015324;28;20030;-65
2022/05/16 04:53:25;;;;;;;20.00;5.25;;;;;;;18.10;53.00;101143.59;5015142;28;20050;-65
2022/05/16 04:55:52;;;;;;;15.98;5.60;;;;;;;18.09;53.23;101142.72;5015427;28;20061;-64
2022/05/16 04:58:20;;;;;;;13.70;5.70;;;;;;;18.14;52.81;101150.69;5015228;28;20040;-65
2022/05/16 05:00:46;;;;;;;14.93;5.30;;;;;;;18.15;53.62;101147.09;5015304;28;20038;-65
2022/05/16 05:03:12;;;;;;;12.98;5.50;;;;;;;18.32;52.61;101154.84;5015086;28;20026;-65
2022/05/16 05:05:37;;;;;;;16.40;5.68;;;;;;;18.37;53.43;101148.53;5014955;28;20383;-65
2022/05/16 05:08:03;;;;;;;10.27;5.22;;;;;;;18.53;52.64;101149.13;5014923;28;20105;-65
2022/05/16 05:16:06;;;;;;;14.07;5.43;;;;;;;18.68;51.94;101146.22;5014560;28;20123;-65
2022/05/16 05:18:32;;;;;;;13.48;5.75;;;;;;;18.75;52.34;101144.31;5014709;28;20026;-65
2022/05/16 05:20:57;;;;;;;13.32;5.22;;;;;;;18.84;52.07;101133.44;5014736;28;20033;-65
2022/05/16 05:23:22;;;;;;;16.98;5.88;;;;;;;18.91;51.91;101131.53;5014792;28;20092;-65
2022/05/16 05:25:48;;;;;;;12.63;5.20;;;;;;;19.04;51.68;101143.78;5014755;28;20030;-66
2022/05/16 05:28:13;;;;;;;12.35;5.38;;;;;;;19.09;52.22;101147.25;5014566;28;20032;-67
2022/05/16 05:30:38;;;;;;;19.48;4.97;;;;;;;19.02;51.55;101157.22;5014457;28;20104;-65
2022/05/16 05:33:05;;;;;;;13.75;5.32;;;;;;;18.91;52.39;101155.63;4996741;28;20030;-64
2022/05/16 05:35:30;;;;;;;10.68;5.45;;;;;;;18.76;52.50;101152.34;5014690;28;20041;-65
2022/05/16 05:37:56;;;;;;;11.05;5.13;;;;;;;18.80;52.70;101152.25;5013580;28;20022;-65
2022/05/16 05:40:22;;;;;;;12.52;5.05;;;;;;;18.87;53.16;101143.22;5014427;28;20026;-65
2022/05/16 05:42:48;;;;;;;12.00;5.28;;;;;;;18.98;52.98;101143.91;5014457;28;20159;-65
2022/05/16 05:45:14;;;;;;;15.23;4.95;;;;;;;19.13;53.01;101140.03;5014248;28;20434;-65
2022/05/16 05:47:39;;;;;;;12.98;5.10;;;;;;;19.26;51.83;101152.25;5014211;28;20056;-65
2022/05/16 05:50:06;;;;;;;11.88;5.22;;;;;;;19.23;52.41;101150.56;5014413;28;20029;-65
2022/05/16 05:52:32;;;;;;;11.93;5.22;;;;;;;19.23;52.32;101161.25;5014224;28;20153;-65
2022/05/16 05:54:57;;;;;;;8.68;4.80;;;;;;;19.08;53.33;101164.22;5014410;28;20097;-65
2022/05/16 05:57:25;;;;;;;10.43;4.88;;;;;;;19.02;53.00;101177.75;5014413;28;20184;-65
2022/05/16 05:59:52;;;;;;;11.10;5.28;;;;;;;19.01;53.23;101174.19;5014255;28;20061;-65
2022/05/16 06:02:18;;;;;;;9.30;5.07;;;;;;;18.92;53.36;101181.50;5014055;28;20034;-65
2022/05/16 06:04:43;;;;;;;14.95;4.65;;;;;;;18.97;53.63;101176.94;5013882;28;20026;-65
2022/05/16 06:07:09;;;;;;;13.75;5.07;;;;;;;19.00;53.58;101177.75;5014024;28;20033;-65
2022/05/16 06:09:35;;;;;;;12.52;5.18;;;;;;;19.10;53.34;101180.25;5014154;28;20036;-65
2022/05/16 06:12:05;;;;;;;12.95;5.22;;;;;;;19.09;52.95;101183.88;5013805;28;20103;-65
2022/05/16 06:14:31;;;;;;;12.00;5.22;;;;;;;19.02;53.27;101173.28;5013871;28;20060;-65
2022/05/16 06:16:59;;;;;;;10.77;5.40;;;;;;;19.06;53.87;101183.91;5013366;28;20061;-65
2022/05/16 06:19:26;;;;;;;13.68;5.25;;;;;;;19.07;53.44;101180.34;5013725;28;20037;-65
2022/05/16 06:21:52;;;;;;;11.98;4.93;;;;;;;19.14;53.73;101184.66;5013815;28;20033;-65
2022/05/16 06:27:05;;;;;;;11.98;5.20;;;;;;;19.21;53.82;101195.22;5014028;28;20148;-65
2022/05/16 06:29:32;;;;;;;13.48;5.43;;;;;;;19.30;53.50;101199.53;5013645;28;20045;-65
2022/05/16 06:32:07;;;;;;;9.75;5.20;;;;;;;19.37;53.54;101193.13;5013561;28;20026;-65
2022/05/16 06:34:33;;;;;;;15.05;5.40;;;;;;;19.46;53.15;101187.59;5013847;28;20102;-65
2022/05/16 06:36:59;;;;;;;12.73;5.63;;;;;;;19.55;53.02;101199.03;5013446;28;20470;-65
2022/05/16 06:39:27;;;;;;;10.93;5.20;;;;;;;19.56;53.46;101199.00;5013519;28;20034;-65
2022/05/16 06:41:54;;;;;;;20.83;5.53;;;;;;;19.59;53.36;101204.31;5013457;28;20069;-65
2022/05/16 06:44:19;;;;;;;16.38;5.30;;;;;;;19.65;52.74;101211.34;5013364;28;20026;-65
2022/05/16 06:46:45;;;;;;;12.73;5.10;;;;;;;19.68;53.37;101208.63;5013291;28;20109;-65
2022/05/16 06:49:11;;;;;;;9.73;5.13;;;;;;;19.72;53.71;101211.19;4995679;28;20022;-65
2022/05/16 06:51:37;;;;;;;11.23;4.97;;;;;;;19.82;53.61;101209.19;5013346;28;20030;-65
2022/05/16 06:54:04;;;;;;;15.43;5.15;;;;;;;19.94;53.82;101216.09;5013189;28;20532;-65
2022/05/16 06:56:31;;;;;;;10.48;4.70;;;;;;;20.10;53.18;101205.91;5013478;28;20021;-65
2022/05/16 06:58:56;;;;;;;9.35;4.22;;;;;;;20.29;52.42;101209.91;5013325;28;20080;-65
2022/05/16 07:01:21;;;;;;;11.50;4.18;;;;;;;20.47;52.15;101217.56;5013047;28;20025;-65
2022/05/16 07:03:50;;;;;;;10.02;4.75;;;;;;;20.72;51.23;101216.97;5013363;28;20038;-64
2022/05/16 07:06:16;;;;;;;19.52;4.50;;;;;;;20.96;50.53;101223.53;5013224;28;20029;-64
2022/05/16 07:08:41;;;;;;;12.63;4.55;;;;;;;21.14;50.25;101209.59;5013316;28;20117;-65
2022/05/16 07:11:08;;;;;;;9.63;3.83;;;;;;;21.17;49.60;101216.69;5013128;28;20110;-65
2022/05/16 07:13:34;;;;;;;12.90;4.30;;;;;;;21.23;49.51;101221.88;5013083;28;20025;-64
2022/05/16 07:16:00;;;;;;;13.77;3.80;;;;;;;21.25;49.49;101220.06;5013156;28;20057;-64
2022/05/16 07:18:27;;;;;;;12.27;3.80;;;;;;;21.37;49.32;101219.75;5013141;28;20483;-65
2022/05/16 07:20:54;;;;;;;15.38;4.40;;;;;;;21.49;49.93;101224.75;5013072;28;20026;-65
2022/05/16 07:23:20;;;;;;;18.38;4.10;;;;;;;21.54;49.65;101226.44;5013052;28;20034;-65
2022/05/16 07:28:29;;;;;;;11.25;3.70;;;;;;;21.68;49.91;101230.50;5013119;28;20045;-65
2022/05/16 07:30:55;;;;;;;17.45;4.10;;;;;;;21.72;50.03;101236.69;5012824;28;20395;-65
2022/05/16 07:33:20;;;;;;;10.43;3.70;;;;;;;21.81;49.66;101233.72;5012948;28;20383;-65
2022/05/16 07:35:50;;;;;;;11.93;3.88;;;;;;;21.89;49.66;101236.19;5012927;28;20022;-65
2022/05/16 07:38:16;;;;;;;11.07;3.70;;;;;;;21.96;49.01;101238.63;5012912;28;20108;-65
2022/05/16 07:40:41;;;;;;;11.00;3.55;;;;;;;22.00;49.33;101231.34;4995276;28;20120;-65
2022/05/16 07:43:07;;;;;;;8.48;3.70;;;;;;;22.10;50.49;101229.25;5012856;28;20030;-65
2022/05/16 07:45:32;;;;;;;10.52;3.50;;;;;;;22.06;48.62;101230.31;4995152;28;20038;-65
2022/05/16 07:48:02;;;;;;;8.60;3.67;;;;;;;22.17;49.38;101230.88;5013090;28;20030;-65
2022/05/16 07:50:32;;;;;;;12.43;3.60;;;;;;;22.21;49.33;101232.53;5012825;28;20483;-65
2022/05/16 07:52:58;;;;;;;9.73;3.50;;;;;;;22.32;49.23;101241.16;5012961;28;20029;-65
2022/05/16 07:55:25;;;;;;;8.88;3.25;;;;;;;22.36;49.30;101247.34;5013003;28;20022;-65
2022/05/16 07:57:51;;;;;;;11.20;3.47;;;;;;;22.37;49.03;101246.41;5012708;28;20054;-65
2022/05/16 08:00:19;;;;;;;6.07;3.15;;;;;;;22.40;49.37;101247.19;5014051;28;20026;-64
2022/05/16 08:02:44;;;;;;;10.45;3.38;;;;;;;22.45;49.59;101245.22;4998734;28;20047;-64
2022/05/16 08:05:12;;;;;;;24.27;4.00;;;;;;;22.47;49.81;101248.75;5016350;28;20507;-64
2022/05/16 08:10:29;;;;;;;20.45;3.60;;;;;;;22.59;49.35;101244.78;5016247;28;20061;-64
2022/05/16 08:10:29;;;;;;;11.50;3.47;;;;;;;22.79;49.06;101254.91;5016047;28;20049;-64
2022/05/16 08:12:55;;;;;;;17.27;3.50;;;;;;;23.13;48.18;101245.69;5015899;28;20508;-65
2022/05/16 08:15:21;;;;;;;17.25;3.45;;;;;;;23.43;48.14;101252.69;5016043;28;20022;-65
2022/05/16 08:17:46;;;;;;;14.88;3.63;;;;;;;23.43;47.30;101244.59;5015777;28;20545;-64
2022/05/16 08:20:12;;;;;;;10.57;3.45;;;;;;;23.44;46.26;101251.75;5015999;28;20069;-64
2022/05/16 08:22:37;;;;;;;7.32;3.20;;;;;;;23.62;46.25;101258.28;5015943;28;20061;-64
2022/05/16 08:25:04;;;;;;;13.07;3.30;;;;;;;23.76;45.97;101255.09;5015998;28;20026;-64
2022/05/16 08:27:30;;;;;;;14.27;3.30;;;;;;;23.81;46.88;101255.84;5015692;28;20502;-64
2022/05/16 08:29:55;;;;;;;14.13;3.20;;;;;;;23.94;45.83;101257.13;5015752;28;20026;-64
2022/05/16 08:32:23;;;;;;;11.52;3.38;;;;;;;23.98;45.90;101258.78;5015653;28;20018;-64
2022/05/16 08:34:59;;;;;;;10.18;3.40;;;;;;;24.15;46.19;101268.91;5015770;28;20029;-64
2022/05/16 08:40:09;;;;;;;8.73;3.75;;;;;;;24.59;45.27;101263.59;5015822;28;20623;-64
2022/05/16 08:42:56;;;;;;;11.07;3.65;;;;;;;24.89;44.55;101261.44;5015649;28;20026;-65
2022/05/16 08:45:50;;;;;;;8.02;3.42;;;;;;;25.38;44.02;101259.34;4997878;28;20034;-64
2022/05/16 08:48:28;;;;;;;12.02;3.20;;;;;;;25.93;41.77;101254.16;4997804;28;20030;-64
2022/05/16 08:51:06;;;;;;;13.77;3.47;;;;;;;26.27;41.22;101263.38;5015469;28;20049;-65
2022/05/16 08:53:41;;;;;;;12.52;3.70;;;;;;;26.65;41.30;101256.13;5015272;28;20033;-65
2022/05/16 08:56:15;;;;;;;11.07;2.90;;;;;;;27.08;40.21;101253.94;5015380;28;20100;-65
2022/05/16 08:58:57;;;;;;;7.43;3.10;;;;;;;27.46;38.82;101251.09;4997676;28;20029;-64
2022/05/16 09:01:28;;;;;;;6.45;3.00;;;;;;;27.88;37.29;101252.44;5015230;28;20037;-65
2022/05/16 09:04:02;;;;;;;12.27;2.90;;;;;;;28.27;37.18;101248.50;5015235;28;20025;-64
2022/05/16 09:06:53;;;;;;;10.40;3.13;;;;;;;28.65;36.54;101251.72;5015101;28;20030;-65
2022/05/16 09:09:22;;;;;;;11.32;3.00;;;;;;;28.82;35.59;101251.66;5014956;28;20026;-65
2022/05/16 09:11:51;;;;;;;13.02;3.03;;;;;;;28.83;35.67;101253.38;5015009;28;20029;-64
2022/05/16 09:14:22;;;;;;;7.75;3.00;;;;;;;29.08;34.41;101247.41;5015090;28;20036;-65
2022/05/16 09:17:08;;;;;;;9.13;2.80;;;;;;;29.44;34.62;101248.81;5014674;28;20054;-65
2022/05/16 09:19:55;;;;;;;9.40;3.03;;;;;;;29.58;34.67;101254.31;5014873;28;20113;-65
2022/05/16 09:22:54;;;;;;;9.20;3.08;;;;;;;29.53;34.45;101244.66;5014837;28;20023;-65
2022/05/16 09:25:23;;;;;;;6.75;3.08;;;;;;;29.35;34.01;101252.13;5014737;28;20026;-65
2022/05/16 09:30:48;;;;;;;7.68;2.83;;;;;;;29.66;34.82;101252.00;5014997;28;20506;-65
2022/05/16 09:33:17;;;;;;;;;;;;;;;30.03;33.30;101254.25;5014969;28;20375;-65
2022/05/16 09:35:58;;;;;;;9.32;3.10;;;;;;;30.03;33.29;101251.50;5014561;28;19958;-65
2022/05/16 09:38:23;;;;;;;11.52;3.05;;;;;;;30.00;33.45;101248.97;5014566;28;20064;-65
2022/05/16 09:40:58;;;;;;;8.95;2.72;;;;;;;30.20;33.09;101254.06;5014552;28;20058;-65
2022/05/16 09:43:24;;;;;;;9.73;3.10;;;;;;;30.44;31.73;101249.69;5014434;28;20073;-65
2022/05/16 09:45:58;;;;;;;7.93;3.00;;;;;;;30.71;31.82;101257.03;5014573;28;20022;-65
2022/05/16 09:48:24;;;;;;;12.40;3.17;;;;;;;30.28;31.94;101261.72;5014558;28;20030;-65
2022/05/16 09:51:02;;;;;;;6.22;2.80;;;;;;;30.28;33.18;101264.44;5014341;28;20537;-65
2022/05/16 09:53:37;;;;;;;9.32;3.05;;;;;;;30.05;32.97;101255.88;5013996;28;20390;-65
2022/05/16 09:56:20;;;;;;;9.73;2.90;;;;;;;30.26;33.12;101272.72;5014150;28;20022;-65
2022/05/16 09:59:01;;;;;;;9.52;2.70;;;;;;;30.20;32.85;101269.53;5014188;28;20028;-65
2022/05/16 10:01:44;;;;;;;8.25;2.95;;;;;;;29.99;33.00;101283.53;5014079;28;20026;-65
2022/05/16 10:04:21;;;;;;;8.07;2.80;;;;;;;29.85;33.51;101298.03;5014299;28;20038;-65
2022/05/16 10:06:59;;;;;;;13.98;3.40;;;;;;;29.95;33.58;101290.16;4996347;28;20037;-65
2022/05/16 10:09:32;;;;;;;7.78;3.17;;;;;;;29.96;33.11;101307.38;5013962;28;20022;-65
2022/05/16 10:11:58;;;;;;;8.77;3.25;;;;;;;30.06;33.23;101303.94;4996249;28;20459;-65
2022/05/16 10:14:23;;;;;;;8.60;3.33;;;;;;;29.91;34.09;101305.81;5013792;28;20034;-65
2022/05/16 10:16:51;;;;;;;10.00;3.50;;;;;;;29.90;33.30;101303.19;5013478;28;20042;-65
2022/05/16 10:19:21;;;;;;;9.20;3.45;;;;;;;29.71;34.00;101300.72;5013909;28;20037;-65
2022/05/16 10:22:01;;;;;;;8.93;3.35;;;;;;;29.72;33.95;101318.81;5013754;28;20478;-65
2022/05/16 10:24:33;;;;;;;10.07;3.60;;;;;;;29.02;35.25;101313.06;5013385;28;20032;-65
2022/05/16 10:27:04;;;;;;;9.98;3.53;;;;;;;28.70;35.46;101317.63;4995871;28;20026;-65
2022/05/16 10:29:36;;;;;;;10.27;3.50;;;;;;;28.17;37.43;101322.38;5013703;28;20026;-65
2022/05/16 10:34:57;;;;;;;8.68;3.70;;;;;;;27.50;40.85;101349.53;5013916;28;19960;-65
2022/05/16 10:37:25;;;;;;;23.15;3.80;;;;;;;27.01;43.20;101352.88;5013605;28;20437;-65
2022/05/16 10:39:56;;;;;;;17.23;3.80;;;;;;;26.39;46.56;101370.31;5013579;28;20026;-65
2022/05/16 10:42:38;;;;;;;16.55;4.20;;;;;;;25.81;48.56;101384.66;5013479;28;20034;-65
2022/05/16 10:45:13;;;;;;;17.10;4.55;;;;;;;25.25;51.73;101389.78;5013545;28;20064;-66
2022/05/16 10:50:31;;;;;;;10.52;4.30;;;;;;;24.41;57.08;101389.50;5121889;22;20060;-65
2022/05/16 10:53:10;;;;;;;14.25;4.45;;;;;;;24.45;56.81;101401.94;5052774;28;20492;-64
2022/05/16 10:55:50;;;;;;;13.65;4.40;;;;;;;24.49;56.50;101406.25;5052605;28;20055;-64
2022/05/16 10:58:45;;;;;;;13.65;4.25;;;;;;;24.59;55.17;101396.00;5052762;28;20029;-65
2022/05/16 11:01:16;;;;;;;19.63;4.90;;;;;;;25.07;57.73;101402.22;5052464;28;20040;-64
2022/05/16 11:04:10;;;;;;;15.63;4.93;;;;;;;25.48;53.93;101401.41;5052556;28;20108;-64
2022/05/16 11:06:55;;;;;;;9.98;4.55;;;;;;;25.63;53.29;101407.09;5052828;28;20029;-64
2022/05/16 11:09:38;;;;;;;12.57;4.80;;;;;;;25.74;51.81;101404.84;5052844;28;20029;-65
2022/05/16 11:12:12;;;;;;;10.82;4.82;;;;;;;25.78;53.04;101403.78;5034444;28;20384;-64
2022/05/16 11:14:57;;;;;;;13.07;4.80;;;;;;;25.97;53.09;101402.00;5052572;28;20082;-63
2022/05/16 11:18:00;;;;;;;13.27;5.10;;;;;;;26.10;50.73;101402.34;5052235;28;20032;-63
2022/05/16 11:20:28;;;;;;;16.98;4.70;;;;;;;26.09;49.58;101400.59;5052297;28;20530;-63
2022/05/16 11:22:59;;;;;;;15.57;4.80;;;;;;;25.95;52.32;101406.63;5052349;28;20511;-63
2022/05/16 11:25:24;;;;;;;10.45;4.90;;;;;;;25.93;52.80;101408.50;5052450;28;20028;-63
2022/05/16 11:28:04;;;;;;;11.40;4.75;;;;;;;25.86;54.59;101409.72;5052317;28;20017;-64
2022/05/16 11:30:50;;;;;;;10.23;5.07;;;;;;;25.70;52.42;101404.06;5052212;28;20029;-63
2022/05/16 11:33:21;;;;;;;14.10;5.13;;;;;;;25.64;53.86;101414.28;5052106;28;20033;-63
2022/05/16 11:35:55;;;;;;;13.77;4.90;;;;;;;25.54;52.84;101419.22;5054822;28;20024;-63
2022/05/16 11:38:58;;;;;;;12.82;5.03;;;;;;;25.32;52.85;101423.78;5055929;28;20029;-63
2022/05/16 11:41:49;;;;;;;12.80;5.10;;;;;;;25.00;52.25;101428.63;4994776;28;20120;-63
2022/05/16 11:44:33;;;;;;;17.13;6.05;;;;;;;24.80;54.27;101432.13;4994574;28;20070;-64
2022/05/16 11:47:23;;;;;;;11.43;5.68;;;;;;;24.84;54.89;101430.16;4994368;28;20415;-64
2022/05/16 11:50:11;;;;;;;11.00;5.78;;;;;;;24.93;56.63;101432.53;4994306;28;20078;-64
2022/05/16 11:52:51;;;;;;;14.13;6.20;;;;;;;24.98;55.56;101438.63;4994374;28;20041;-64
2022/05/16 12:01:01;;;;;;;17.23;5.68;;;;;;;24.99;54.21;101441.25;4994333;28;20033;-63
2022/05/16 12:04:04;;;;;;;15.35;5.70;;;;;;;24.99;53.27;101441.25;4994354;28;20046;-63
2022/05/16 12:06:35;;;;;;;12.50;5.53;;;;;;;24.93;53.30;101443.34;4985096;28;20101;-63
2022/05/16 12:09:17;;;;;;;12.32;6.03;;;;;;;24.82;53.49;101440.16;4994126;28;20046;-63
2022/05/16 12:12:08;;;;;;;13.18;6.18;;;;;;;24.91;54.72;101450.63;4994075;28;20030;-63